KBWG/BWG METAR and TAF weather

Enter ICAO airport designator
Station Type Date Time Source
KBWG METAR 2020/02/24 23:53 UTC NOAA

KBWG 242353Z AUTO 17007KT 6SM BR OVC007 11/09 A2971 RMK AO2 RAE2257 SLP060 P0000 60040 T01060089 10106 20083 56009


Station Type Date Time Source
KBWG Decoded METAR 2020/02/24 23:53 UTC NOAA

BOWLING GREEN-WARREN CO RGNL, KY, United States (KBWG) 36-58N 086-25W 161M
Feb 24, 2020 - 06:53 PM EST / 2020.02.24 2353 UTC
Wind: from the S (170 degrees) at 8 MPH (7 KT):0
Visibility: 6 mile(s):0
Sky conditions: overcast
Weather: mist
Precipitation last hour: A trace
Temperature: 51.1 F (10.6 C)
Dew Point: 48.0 F (8.9 C)
Relative Humidity: 89%
Pressure (altimeter): 29.71 in. Hg (1006 hPa)
Pressure tendency: 0.03 inches (0.9 hPa) lower than three hours ago
ob: KBWG 242353Z AUTO 17007KT 6SM BR OVC007 11/09 A2971 RMK AO2 RAE2257 SLP060 P0000 60040 T01060089 10106 20083 56009
cycle: 0

Station Type Date Time Source
KBWG TAF 2020/02/24 18:30 UTC NOAA

TAF KBWG 241727Z 2418/2518 16014KT 4SM -RA BR OVC012
TEMPO 2418/2422 2SM RA BR OVC008
FM242200 17013KT 6SM BR SCT008 OVC011
FM250200 18010KT 6SM -RA VCTS BKN012 OVC026CB
FM250700 20009KT P6SM VCSH BKN019 OVC030

Example: see airport list